createdAt,value
2018-11-25T00:00:39.409Z,999.78
2018-11-25T00:01:39.347Z,999.82
2018-11-25T00:02:39.342Z,999.83
2018-11-25T00:03:39.358Z,999.84
2018-11-25T00:04:39.327Z,999.82
2018-11-25T00:05:39.310Z,999.83
2018-11-25T00:06:39.298Z,999.80
2018-11-25T00:07:39.289Z,999.77
2018-11-25T00:08:39.294Z,999.80
2018-11-25T00:09:39.274Z,999.86
2018-11-25T00:10:39.250Z,999.78
2018-11-25T00:11:39.277Z,999.78
2018-11-25T00:12:39.226Z,999.77
2018-11-25T00:13:39.246Z,999.85
2018-11-25T00:14:39.215Z,999.85
2018-11-25T00:15:39.196Z,999.82
2018-11-25T00:16:39.185Z,999.84
2018-11-25T00:17:39.176Z,999.89
2018-11-25T00:18:39.205Z,999.78
2018-11-25T00:19:39.154Z,999.89
2018-11-25T00:20:39.143Z,999.78
2018-11-25T00:21:39.135Z,999.82
2018-11-25T00:22:39.125Z,999.72
2018-11-25T00:23:39.126Z,999.70
2018-11-25T00:24:39.124Z,999.69
2018-11-25T00:25:39.092Z,999.71
2018-11-25T00:26:39.095Z,999.68
2018-11-25T00:27:39.067Z,999.71
2018-11-25T00:28:39.061Z,999.71
2018-11-25T00:29:39.062Z,999.73
2018-11-25T00:30:39.035Z,999.72
2018-11-25T00:31:39.022Z,999.77
2018-11-25T00:32:39.015Z,999.74
2018-11-25T00:33:39.028Z,999.74
2018-11-25T00:34:39.037Z,999.71
2018-11-25T00:35:38.980Z,999.75
2018-11-25T00:36:38.968Z,999.70
2018-11-25T00:37:38.959Z,999.66
2018-11-25T00:38:38.946Z,999.74
2018-11-25T00:39:38.939Z,999.71
2018-11-25T00:40:38.970Z,999.74
2018-11-25T00:41:38.930Z,999.74
2018-11-25T00:42:38.906Z,999.70
2018-11-25T00:43:38.893Z,999.64
2018-11-25T00:44:38.894Z,999.60
2018-11-25T00:45:38.897Z,999.63
2018-11-25T00:46:38.887Z,999.67
2018-11-25T00:47:38.853Z,999.63
2018-11-25T00:48:38.851Z,999.68
2018-11-25T00:49:38.838Z,999.69
2018-11-25T00:50:38.832Z,999.67
2018-11-25T00:51:38.866Z,999.68
2018-11-25T00:52:38.843Z,999.68
2018-11-25T00:53:38.783Z,999.62
2018-11-25T00:54:38.788Z,999.69
2018-11-25T00:55:38.777Z,999.66
2018-11-25T00:56:38.755Z,999.69
2018-11-25T00:57:38.770Z,999.68
2018-11-25T00:58:38.758Z,999.69
2018-11-25T00:59:38.729Z,999.65
2018-11-25T01:00:38.721Z,999.59
2018-11-25T01:01:38.714Z,999.63
2018-11-25T01:02:38.689Z,999.65
2018-11-25T01:03:38.701Z,999.61
2018-11-25T01:04:38.678Z,999.63
2018-11-25T01:05:38.663Z,999.63
2018-11-25T01:06:38.653Z,999.66
2018-11-25T01:07:38.660Z,999.69
2018-11-25T01:08:38.655Z,999.62
2018-11-25T01:09:38.624Z,999.63
2018-11-25T01:10:38.610Z,999.69
2018-11-25T01:11:38.591Z,999.72
2018-11-25T01:12:38.585Z,999.68
2018-11-25T01:13:38.609Z,999.62
2018-11-25T01:14:38.591Z,999.62
2018-11-25T01:15:38.547Z,999.69
2018-11-25T01:16:38.549Z,999.68
2018-11-25T01:17:38.528Z,999.65
2018-11-25T01:18:38.513Z,999.67
2018-11-25T01:19:38.529Z,999.71
2018-11-25T01:20:38.498Z,999.61
2018-11-25T01:21:38.486Z,999.64
2018-11-25T01:22:38.482Z,999.59
2018-11-25T01:23:38.478Z,999.61
2018-11-25T01:24:38.499Z,999.59
2018-11-25T01:25:38.447Z,999.54
2018-11-25T01:26:38.429Z,999.52
2018-11-25T01:27:38.416Z,999.55
2018-11-25T01:28:38.452Z,999.55
2018-11-25T01:29:38.405Z,999.53
2018-11-25T01:30:38.448Z,999.54
2018-11-25T01:31:38.385Z,999.57
2018-11-25T01:32:38.365Z,999.52
2018-11-25T01:33:38.351Z,999.52
2018-11-25T01:34:38.354Z,999.50
2018-11-25T01:35:38.370Z,999.53
2018-11-25T01:36:38.322Z,999.53
2018-11-25T01:37:38.326Z,999.47
2018-11-25T01:38:38.312Z,999.54
2018-11-25T01:39:38.299Z,999.54
2018-11-25T01:40:38.303Z,999.49
2018-11-25T01:41:38.275Z,999.45
2018-11-25T01:42:38.263Z,999.45
2018-11-25T01:43:38.256Z,999.49
2018-11-25T01:44:38.260Z,999.46
2018-11-25T01:45:38.268Z,999.45
2018-11-25T01:46:38.230Z,999.45
2018-11-25T01:47:38.209Z,999.44
2018-11-25T01:48:38.209Z,999.41
2018-11-25T01:49:38.186Z,999.43
2018-11-25T01:50:38.176Z,999.46
2018-11-25T01:51:38.189Z,999.46
2018-11-25T01:52:38.152Z,999.41
2018-11-25T01:53:38.142Z,999.40
2018-11-25T01:54:38.128Z,999.34
2018-11-25T01:55:38.136Z,999.32
2018-11-25T01:56:38.138Z,999.33
2018-11-25T01:57:38.098Z,999.32
2018-11-25T01:58:38.094Z,999.33
2018-11-25T01:59:38.073Z,999.32
2018-11-25T02:00:38.063Z,999.35
2018-11-25T02:01:38.079Z,999.38
2018-11-25T02:02:38.050Z,999.38
2018-11-25T02:03:38.032Z,999.45
2018-11-25T02:04:38.020Z,999.41
2018-11-25T02:05:38.035Z,999.38
2018-11-25T02:06:38.031Z,999.40
2018-11-25T02:07:37.999Z,999.46
2018-11-25T02:08:37.974Z,999.37
2018-11-25T02:09:37.964Z,999.47
2018-11-25T02:10:37.955Z,999.39
2018-11-25T02:11:37.952Z,999.37
2018-11-25T02:12:37.964Z,999.37
2018-11-25T02:13:37.938Z,999.29
2018-11-25T02:14:37.918Z,999.26
2018-11-25T02:15:37.903Z,999.28
2018-11-25T02:16:37.893Z,999.29
2018-11-25T02:17:37.901Z,999.31
2018-11-25T02:18:37.888Z,999.33
2018-11-25T02:19:37.874Z,999.31
2018-11-25T02:20:37.858Z,999.27
2018-11-25T02:21:37.845Z,999.30
2018-11-25T02:22:37.856Z,999.33
2018-11-25T02:23:37.832Z,999.29
2018-11-25T02:24:37.813Z,999.20
2018-11-25T02:25:37.792Z,999.18
2018-11-25T02:26:37.789Z,999.17
2018-11-25T02:27:37.821Z,999.12
2018-11-25T02:28:37.765Z,999.15
2018-11-25T02:29:37.760Z,999.13
2018-11-25T02:30:37.757Z,999.15
2018-11-25T02:31:37.735Z,999.14
2018-11-25T02:32:37.737Z,999.15
2018-11-25T02:33:37.730Z,999.15
2018-11-25T02:34:37.705Z,999.13
2018-11-25T02:35:37.726Z,999.10
2018-11-25T02:36:37.675Z,999.14
2018-11-25T02:37:37.672Z,999.01
2018-11-25T02:38:37.682Z,999.11
2018-11-25T02:39:37.647Z,999.09
2018-11-25T02:40:37.630Z,999.06
2018-11-25T02:41:37.617Z,999.12
2018-11-25T02:42:37.609Z,999.15
2018-11-25T02:43:37.633Z,999.15
2018-11-25T02:44:37.598Z,999.15
2018-11-25T02:45:37.573Z,999.06
2018-11-25T02:46:37.567Z,999.12
2018-11-25T02:47:37.567Z,999.16
2018-11-25T02:48:37.613Z,999.14
2018-11-25T02:49:37.541Z,999.17
2018-11-25T02:50:37.534Z,999.15
2018-11-25T02:51:37.532Z,999.17
2018-11-25T02:52:37.514Z,999.16
2018-11-25T02:53:37.496Z,999.07
2018-11-25T02:54:37.510Z,999.09
2018-11-25T02:55:37.463Z,999.04
2018-11-25T02:56:37.453Z,999.07
2018-11-25T02:57:37.462Z,999.07
2018-11-25T02:58:37.463Z,999.10
2018-11-25T02:59:37.423Z,999.05
2018-11-25T03:00:37.427Z,999.03
2018-11-25T03:01:37.430Z,999.03
2018-11-25T03:02:37.395Z,999.06
2018-11-25T03:03:37.381Z,999.01
2018-11-25T03:04:37.397Z,999.05
2018-11-25T03:05:37.361Z,999.00
2018-11-25T03:06:37.352Z,999.08
2018-11-25T03:07:37.349Z,999.01
2018-11-25T03:08:37.330Z,999.01
2018-11-25T03:09:37.337Z,998.98
2018-11-25T03:10:37.314Z,998.99
2018-11-25T03:11:37.293Z,998.98
2018-11-25T03:12:37.280Z,999.06
2018-11-25T03:13:37.274Z,999.00
2018-11-25T03:14:37.296Z,998.99
2018-11-25T03:15:37.256Z,998.97
2018-11-25T03:16:37.248Z,999.08
2018-11-25T03:17:37.242Z,998.97
2018-11-25T03:18:37.231Z,998.93
2018-11-25T03:19:37.251Z,998.91
2018-11-25T03:20:37.214Z,998.99
2018-11-25T03:21:37.187Z,998.97
2018-11-25T03:22:37.176Z,998.96
2018-11-25T03:23:37.167Z,998.90
2018-11-25T03:24:37.153Z,998.91
2018-11-25T03:25:37.164Z,998.91
2018-11-25T03:26:37.129Z,998.89
2018-11-25T03:27:37.122Z,998.88
2018-11-25T03:28:37.117Z,998.93
2018-11-25T03:29:37.097Z,998.90
2018-11-25T03:30:37.124Z,998.88
2018-11-25T03:31:37.083Z,998.84
2018-11-25T03:32:37.061Z,998.88
2018-11-25T03:33:37.054Z,998.83
2018-11-25T03:34:37.060Z,998.92
2018-11-25T03:35:37.043Z,998.89
2018-11-25T03:36:37.071Z,998.91
2018-11-25T03:37:37.011Z,998.86
2018-11-25T03:38:37.009Z,998.93
2018-11-25T03:39:36.985Z,998.92
2018-11-25T03:40:36.987Z,998.93
2018-11-25T03:41:36.996Z,998.92
2018-11-25T03:42:36.954Z,998.92
2018-11-25T03:43:36.948Z,998.87
2018-11-25T03:44:36.941Z,998.82
2018-11-25T03:45:36.931Z,998.86
2018-11-25T03:46:36.930Z,998.86
2018-11-25T03:47:36.949Z,998.91
2018-11-25T03:48:36.924Z,998.91
2018-11-25T03:49:36.883Z,998.92
2018-11-25T03:50:36.877Z,998.91
2018-11-25T03:51:36.862Z,998.90
2018-11-25T03:52:36.877Z,998.91
2018-11-25T03:53:36.861Z,998.91
2018-11-25T03:54:36.849Z,998.89
2018-11-25T03:55:36.817Z,998.84
2018-11-25T03:56:36.813Z,998.85
2018-11-25T03:57:36.799Z,998.83
2018-11-25T03:58:36.783Z,998.88
2018-11-25T03:59:36.789Z,998.86
2018-11-25T04:00:36.773Z,998.93
2018-11-25T04:01:36.747Z,998.85
2018-11-25T04:02:36.751Z,998.91
2018-11-25T04:03:36.755Z,998.93
2018-11-25T04:04:36.751Z,998.90
2018-11-25T04:05:36.707Z,998.87
2018-11-25T04:06:36.708Z,998.87
2018-11-25T04:07:36.686Z,998.91
2018-11-25T04:08:36.673Z,998.88
2018-11-25T04:09:36.677Z,998.92
2018-11-25T04:10:36.686Z,998.85
2018-11-25T04:11:36.646Z,998.90
2018-11-25T04:12:36.645Z,998.96
2018-11-25T04:13:36.632Z,998.95
2018-11-25T04:14:36.615Z,998.91
2018-11-25T04:15:36.631Z,998.90
2018-11-25T04:16:36.614Z,998.90
2018-11-25T04:17:36.575Z,998.88
2018-11-25T04:18:36.560Z,998.87
2018-11-25T04:19:36.564Z,998.86
2018-11-25T04:20:36.595Z,998.86
2018-11-25T04:21:36.558Z,998.87
2018-11-25T04:22:36.524Z,998.85
2018-11-25T04:23:36.544Z,998.89
2018-11-25T04:24:36.501Z,998.89
2018-11-25T04:25:36.510Z,998.83
2018-11-25T04:26:36.500Z,998.90
2018-11-25T04:27:36.477Z,998.90
2018-11-25T04:28:36.462Z,998.90
2018-11-25T04:29:36.447Z,998.92
2018-11-25T04:30:36.446Z,998.94
2018-11-25T04:31:36.442Z,998.91
2018-11-25T04:32:36.414Z,998.88
2018-11-25T04:33:36.410Z,998.88
2018-11-25T04:34:36.394Z,998.83
2018-11-25T04:35:36.423Z,998.80
2018-11-25T04:36:36.404Z,998.83
2018-11-25T04:37:36.370Z,998.90
2018-11-25T04:38:36.348Z,998.85
2018-11-25T04:39:36.342Z,998.88
2018-11-25T04:40:36.330Z,998.93
2018-11-25T04:41:36.312Z,998.81
2018-11-25T04:42:36.324Z,998.87
2018-11-25T04:43:36.303Z,998.79
2018-11-25T04:44:36.291Z,998.82
2018-11-25T04:45:36.269Z,998.84
2018-11-25T04:46:36.261Z,998.81
2018-11-25T04:47:36.268Z,998.84
2018-11-25T04:48:36.241Z,998.82
2018-11-25T04:49:36.230Z,998.83
2018-11-25T04:50:36.224Z,998.79
2018-11-25T04:51:36.209Z,998.78
2018-11-25T04:52:36.244Z,998.77
2018-11-25T04:53:36.187Z,998.78
2018-11-25T04:54:36.178Z,998.79
2018-11-25T04:55:36.168Z,998.81
2018-11-25T04:56:36.153Z,998.76
2018-11-25T04:57:36.142Z,998.79
2018-11-25T04:58:36.165Z,998.80
2018-11-25T04:59:36.121Z,998.72
2018-11-25T05:00:36.115Z,998.74
2018-11-25T05:01:36.103Z,998.68
2018-11-25T05:02:36.084Z,998.70
2018-11-25T05:03:36.107Z,998.63
2018-11-25T05:04:36.096Z,998.61
2018-11-25T05:05:36.077Z,998.53
2018-11-25T05:06:36.041Z,998.53
2018-11-25T05:07:36.035Z,998.49
2018-11-25T05:08:36.074Z,998.50
2018-11-25T05:09:36.022Z,998.59
2018-11-25T05:10:35.996Z,998.60
2018-11-25T05:11:35.999Z,998.57
2018-11-25T05:12:35.989Z,998.51
2018-11-25T05:13:36.015Z,998.56
2018-11-25T05:14:35.956Z,998.51
2018-11-25T05:15:35.949Z,998.61
2018-11-25T05:16:35.943Z,998.59
2018-11-25T05:17:35.938Z,998.59
2018-11-25T05:18:35.930Z,998.60
2018-11-25T05:19:35.920Z,998.56
2018-11-25T05:20:35.898Z,998.56
2018-11-25T05:21:35.891Z,998.55
2018-11-25T05:22:35.872Z,998.53
2018-11-25T05:23:35.863Z,998.59
2018-11-25T05:24:35.872Z,998.55
2018-11-25T05:25:35.837Z,998.53
2018-11-25T05:26:35.854Z,998.56
2018-11-25T05:27:35.824Z,998.56
2018-11-25T05:28:35.804Z,998.55
2018-11-25T05:29:35.793Z,998.54
2018-11-25T05:30:35.782Z,998.51
2018-11-25T05:31:35.813Z,998.48
2018-11-25T05:32:35.773Z,998.49
2018-11-25T05:33:35.753Z,998.45
2018-11-25T05:34:35.745Z,998.48
2018-11-25T05:35:35.730Z,998.46
2018-11-25T05:36:35.721Z,998.45
2018-11-25T05:37:35.724Z,998.45
2018-11-25T05:38:35.726Z,998.54
2018-11-25T05:39:35.693Z,998.48
2018-11-25T05:40:35.685Z,998.49
2018-11-25T05:41:35.667Z,998.49
2018-11-25T05:42:35.688Z,998.54
2018-11-25T05:43:35.642Z,998.46
2018-11-25T05:44:35.631Z,998.50
2018-11-25T05:45:35.627Z,998.52
2018-11-25T05:46:35.607Z,998.54
2018-11-25T05:47:35.627Z,998.53
2018-11-25T05:48:35.590Z,998.54
2018-11-25T05:49:36.695Z,998.58
2018-11-25T05:50:35.565Z,998.60
2018-11-25T05:51:35.552Z,998.56
2018-11-25T05:52:35.587Z,998.54
2018-11-25T05:53:35.530Z,998.51
2018-11-25T05:54:35.517Z,998.52
2018-11-25T05:55:35.528Z,998.55
2018-11-25T05:56:35.533Z,998.50
2018-11-25T05:57:35.486Z,998.51
2018-11-25T05:58:35.513Z,998.52
2018-11-25T05:59:35.471Z,998.45
2018-11-25T06:00:35.461Z,998.47
2018-11-25T06:01:35.454Z,998.47
2018-11-25T06:02:35.473Z,998.49
2018-11-25T06:03:35.443Z,998.53
2018-11-25T06:04:35.421Z,998.53
2018-11-25T06:05:35.418Z,998.44
2018-11-25T06:06:35.394Z,998.52
2018-11-25T06:07:35.394Z,998.51
2018-11-25T06:08:35.390Z,998.49
2018-11-25T06:09:35.360Z,998.53
2018-11-25T06:10:35.351Z,998.54
2018-11-25T06:11:35.331Z,998.57
2018-11-25T06:12:35.323Z,998.50
2018-11-25T06:13:35.337Z,998.51
2018-11-25T06:14:35.312Z,998.58
2018-11-25T06:15:35.289Z,998.51
2018-11-25T06:16:35.293Z,998.54
2018-11-25T06:17:35.274Z,998.58
2018-11-25T06:18:35.297Z,998.58
2018-11-25T06:19:35.260Z,998.67
2018-11-25T06:20:35.239Z,998.70
2018-11-25T06:21:35.229Z,998.64
2018-11-25T06:22:35.219Z,998.66
2018-11-25T06:23:35.205Z,998.70
2018-11-25T06:24:35.234Z,998.69
2018-11-25T06:25:35.188Z,998.62
2018-11-25T06:26:35.172Z,998.65
2018-11-25T06:27:38.353Z,998.65
2018-11-25T06:28:35.171Z,998.71
2018-11-25T06:29:35.168Z,998.71
2018-11-25T06:30:35.143Z,998.75
2018-11-25T06:31:35.120Z,998.75
2018-11-25T06:32:35.114Z,998.74
2018-11-25T06:33:35.094Z,998.75
2018-11-25T06:34:35.121Z,998.78
2018-11-25T06:35:35.075Z,998.75
2018-11-25T06:36:35.076Z,998.73
2018-11-25T06:37:35.052Z,998.74
2018-11-25T06:38:35.042Z,998.76
2018-11-25T06:39:35.062Z,998.77
2018-11-25T06:40:35.042Z,998.79
2018-11-25T06:41:35.010Z,998.75
2018-11-25T06:42:35.001Z,998.77
2018-11-25T06:43:35.002Z,998.74
2018-11-25T06:44:34.974Z,998.81
2018-11-25T06:45:35.029Z,998.78
2018-11-25T06:46:34.982Z,998.83
2018-11-25T06:47:34.955Z,998.79
2018-11-25T06:48:34.943Z,998.83
2018-11-25T06:49:34.935Z,998.88
2018-11-25T06:50:34.931Z,998.87
2018-11-25T06:51:34.910Z,998.84
2018-11-25T06:52:34.891Z,998.82
2018-11-25T06:53:34.887Z,998.82
2018-11-25T06:54:34.916Z,998.87
2018-11-25T06:55:34.872Z,998.83
2018-11-25T06:56:34.858Z,998.91
2018-11-25T06:57:34.836Z,998.90
2018-11-25T06:58:34.824Z,998.95
2018-11-25T06:59:34.864Z,998.86
2018-11-25T07:00:34.809Z,998.86
2018-11-25T07:01:34.802Z,998.89
2018-11-25T07:02:34.808Z,998.90
2018-11-25T07:03:34.780Z,998.93
2018-11-25T07:04:34.772Z,998.91
2018-11-25T07:05:34.784Z,998.91
2018-11-25T07:06:34.737Z,998.94
2018-11-25T07:07:34.740Z,998.99
2018-11-25T07:08:34.735Z,998.89
2018-11-25T07:09:34.715Z,998.97
2018-11-25T07:10:34.733Z,998.94
2018-11-25T07:11:34.715Z,998.98
2018-11-25T07:12:34.676Z,998.96
2018-11-25T07:13:34.672Z,998.96
2018-11-25T07:14:34.662Z,998.92
2018-11-25T07:15:34.679Z,998.89
2018-11-25T07:16:34.643Z,998.95
2018-11-25T07:17:34.635Z,998.91
2018-11-25T07:18:34.608Z,998.98
2018-11-25T07:19:34.604Z,998.93
2018-11-25T07:20:34.591Z,998.98
2018-11-25T07:21:34.600Z,998.93
2018-11-25T07:22:34.565Z,998.99
2018-11-25T07:23:34.560Z,999.04
2018-11-25T07:24:34.566Z,999.05
2018-11-25T07:25:34.532Z,998.99
2018-11-25T07:26:34.540Z,999.05
2018-11-25T07:27:34.515Z,999.00
2018-11-25T07:28:34.498Z,998.95
2018-11-25T07:29:34.507Z,998.96
2018-11-25T07:30:34.482Z,998.91
2018-11-25T07:31:34.502Z,998.94
2018-11-25T07:32:34.460Z,998.92
2018-11-25T07:33:34.492Z,998.99
2018-11-25T07:34:34.441Z,998.91
2018-11-25T07:35:34.441Z,998.95
2018-11-25T07:36:34.442Z,998.89
2018-11-25T07:37:34.455Z,999.01
2018-11-25T07:38:34.391Z,998.93
2018-11-25T07:39:34.402Z,999.01
2018-11-25T07:40:35.257Z,998.96
2018-11-25T07:41:34.406Z,998.93
2018-11-25T07:42:34.356Z,998.93
2018-11-25T07:43:34.342Z,999.00
2018-11-25T07:44:34.328Z,999.03
2018-11-25T07:45:34.323Z,999.00
2018-11-25T07:46:34.339Z,999.05
2018-11-25T07:47:34.293Z,999.04
2018-11-25T07:48:34.320Z,999.03
2018-11-25T07:49:34.301Z,999.04
2018-11-25T07:50:34.261Z,999.02
2018-11-25T07:51:34.258Z,999.04
2018-11-25T07:52:34.261Z,998.98
2018-11-25T07:53:34.232Z,998.96
2018-11-25T07:54:34.232Z,999.01
2018-11-25T07:55:34.234Z,999.00
2018-11-25T07:56:34.195Z,998.97
2018-11-25T07:57:34.195Z,998.96
2018-11-25T07:58:34.213Z,999.03
2018-11-25T07:59:34.170Z,998.95
2018-11-25T08:00:34.161Z,999.00
2018-11-25T08:01:34.141Z,999.02
2018-11-25T08:02:36.851Z,999.02
2018-11-25T08:03:35.169Z,998.95
2018-11-25T08:04:34.112Z,998.95
2018-11-25T08:05:34.100Z,998.98
2018-11-25T08:06:34.109Z,998.92
2018-11-25T08:07:34.077Z,998.90
2018-11-25T08:08:34.063Z,998.86
2018-11-25T08:09:34.056Z,998.85
2018-11-25T08:10:34.052Z,998.87
2018-11-25T08:11:34.062Z,998.85
2018-11-25T08:12:34.026Z,998.90
2018-11-25T08:13:34.023Z,998.89
2018-11-25T08:14:34.007Z,998.84
2018-11-25T08:15:34.008Z,998.84
2018-11-25T08:16:34.016Z,998.79
2018-11-25T08:17:33.993Z,998.82
2018-11-25T08:18:33.996Z,998.81
2018-11-25T08:19:33.947Z,998.81
2018-11-25T08:20:33.938Z,998.85
2018-11-25T08:21:33.962Z,998.77
2018-11-25T08:22:33.928Z,998.78
2018-11-25T08:23:33.901Z,998.81
2018-11-25T08:24:33.913Z,998.78
2018-11-25T08:25:33.886Z,998.76
2018-11-25T08:26:33.887Z,998.77
2018-11-25T08:27:33.902Z,998.80
2018-11-25T08:28:33.851Z,998.74
2018-11-25T08:29:33.834Z,998.84
2018-11-25T08:30:33.832Z,998.79
2018-11-25T08:31:33.819Z,998.75
2018-11-25T08:32:33.879Z,998.76
2018-11-25T08:33:33.803Z,998.81
2018-11-25T08:34:33.812Z,998.77
2018-11-25T08:35:33.814Z,998.73
2018-11-25T08:36:33.783Z,998.79
2018-11-25T08:37:33.748Z,998.75
2018-11-25T08:38:33.752Z,998.78
2018-11-25T08:39:33.730Z,998.72
2018-11-25T08:40:33.740Z,998.73
2018-11-25T08:41:33.714Z,998.71
2018-11-25T08:42:33.698Z,998.77
2018-11-25T08:43:33.687Z,998.78
2018-11-25T08:44:33.728Z,998.73
2018-11-25T08:45:33.693Z,998.77
2018-11-25T08:46:33.650Z,998.82
2018-11-25T08:47:33.643Z,998.83
2018-11-25T08:48:33.643Z,998.81
2018-11-25T08:49:33.623Z,998.85
2018-11-25T08:50:33.645Z,998.88
2018-11-25T08:51:33.600Z,998.87
2018-11-25T08:52:33.584Z,998.86
2018-11-25T08:53:33.601Z,998.83
2018-11-25T08:54:33.965Z,998.83
2018-11-25T08:55:33.574Z,998.88
2018-11-25T08:56:33.553Z,998.88
2018-11-25T08:57:33.530Z,998.87
2018-11-25T08:58:33.517Z,998.87
2018-11-25T08:59:33.510Z,998.88
2018-11-25T09:00:33.515Z,998.85
2018-11-25T09:01:33.507Z,998.84
2018-11-25T09:02:33.472Z,998.82
2018-11-25T09:03:33.475Z,998.88
2018-11-25T09:04:33.451Z,998.85
2018-11-25T09:05:33.441Z,998.80
2018-11-25T09:06:33.462Z,998.82
2018-11-25T09:07:33.425Z,998.85
2018-11-25T09:08:33.405Z,998.82
2018-11-25T09:09:33.405Z,998.88
2018-11-25T09:10:33.382Z,998.78
2018-11-25T09:11:33.372Z,998.82
2018-11-25T09:12:33.380Z,998.83
2018-11-25T09:13:33.374Z,998.80
2018-11-25T09:14:33.341Z,998.82
2018-11-25T09:15:33.342Z,998.82
2018-11-25T09:16:33.334Z,998.85
2018-11-25T09:17:33.345Z,998.82
2018-11-25T09:18:33.323Z,998.82
2018-11-25T09:19:33.308Z,998.86
2018-11-25T09:20:33.294Z,998.86
2018-11-25T09:21:33.264Z,998.92
2018-11-25T09:22:33.287Z,998.89
2018-11-25T09:23:33.265Z,998.92
2018-11-25T09:24:33.231Z,998.96
2018-11-25T09:25:33.250Z,999.00
2018-11-25T09:26:33.217Z,998.94
2018-11-25T09:27:33.203Z,998.95
2018-11-25T09:28:33.220Z,998.90
2018-11-25T09:29:33.178Z,998.98
2018-11-25T09:30:33.181Z,998.97
2018-11-25T09:31:33.179Z,999.04
2018-11-25T09:32:33.145Z,999.03
2018-11-25T09:33:33.168Z,999.03
2018-11-25T09:34:33.125Z,998.98
2018-11-25T09:35:33.116Z,999.05
2018-11-25T09:36:33.121Z,999.01
2018-11-25T09:37:33.090Z,999.02
2018-11-25T09:38:33.120Z,999.05
2018-11-25T09:39:33.067Z,999.08
2018-11-25T09:40:33.055Z,999.07
2018-11-25T09:41:33.089Z,999.05
2018-11-25T09:42:33.040Z,999.03
2018-11-25T09:43:33.075Z,999.01
2018-11-25T09:44:33.016Z,999.03
2018-11-25T09:45:33.021Z,999.07
2018-11-25T09:46:32.995Z,999.04
2018-11-25T09:47:32.992Z,999.03
2018-11-25T09:48:32.973Z,999.03
2018-11-25T09:49:32.983Z,998.97
2018-11-25T09:50:32.950Z,999.01
2018-11-25T09:51:32.958Z,999.00
2018-11-25T09:52:32.924Z,999.05
2018-11-25T09:53:32.938Z,998.97
2018-11-25T09:54:32.933Z,998.98
2018-11-25T09:55:33.873Z,998.92
2018-11-25T09:56:32.881Z,998.92
2018-11-25T09:57:32.891Z,998.92
2018-11-25T09:58:32.867Z,998.88
2018-11-25T09:59:32.879Z,998.91
2018-11-25T10:00:32.845Z,998.88
2018-11-25T10:01:32.831Z,998.86
2018-11-25T10:02:32.826Z,998.88
2018-11-25T10:03:32.817Z,998.78
2018-11-25T10:04:32.832Z,998.82
2018-11-25T10:05:32.796Z,998.85
2018-11-25T10:06:32.783Z,998.77
2018-11-25T10:07:32.771Z,998.80
2018-11-25T10:08:32.755Z,998.82
2018-11-25T10:09:32.760Z,998.79
2018-11-25T10:10:32.755Z,998.77
2018-11-25T10:11:32.724Z,998.85
2018-11-25T10:12:32.718Z,998.76
2018-11-25T10:13:32.705Z,998.80
2018-11-25T10:14:32.696Z,998.74
2018-11-25T10:15:32.697Z,998.69
2018-11-25T10:16:32.685Z,998.66
2018-11-25T10:17:32.663Z,998.63
2018-11-25T10:18:32.645Z,998.64
2018-11-25T10:19:32.632Z,998.67
2018-11-25T10:20:32.622Z,998.62
2018-11-25T10:21:32.632Z,998.62
2018-11-25T10:22:32.618Z,998.60
2018-11-25T10:23:32.591Z,998.60
2018-11-25T10:24:32.579Z,998.57
2018-11-25T10:25:32.566Z,998.63
2018-11-25T10:26:32.580Z,998.63
2018-11-25T10:27:32.551Z,998.56
2018-11-25T10:28:32.540Z,998.59
2018-11-25T10:29:32.524Z,998.68
2018-11-25T10:30:32.519Z,998.58
2018-11-25T10:31:32.528Z,998.55
2018-11-25T10:32:32.531Z,998.62
2018-11-25T10:33:32.482Z,998.53
2018-11-25T10:34:32.470Z,998.54
2018-11-25T10:35:32.486Z,998.57
2018-11-25T10:36:32.489Z,998.56
2018-11-25T10:37:32.450Z,998.55
2018-11-25T10:38:32.471Z,998.54
2018-11-25T10:39:32.420Z,998.60
2018-11-25T10:40:32.430Z,998.60
2018-11-25T10:41:32.424Z,998.61
2018-11-25T10:42:32.405Z,998.56
2018-11-25T10:43:32.367Z,998.52
2018-11-25T10:44:32.391Z,998.48
2018-11-25T10:45:32.391Z,998.54
2018-11-25T10:46:32.355Z,998.51
2018-11-25T10:47:32.353Z,998.42
2018-11-25T10:48:32.318Z,998.41
2018-11-25T10:49:32.318Z,998.46
2018-11-25T10:50:32.322Z,998.40
2018-11-25T10:51:32.296Z,998.38
2018-11-25T10:52:32.278Z,998.38
2018-11-25T10:53:32.294Z,998.34
2018-11-25T10:54:32.251Z,998.36
2018-11-25T10:55:32.277Z,998.35
2018-11-25T10:56:32.235Z,998.33
2018-11-25T10:57:32.215Z,998.29
2018-11-25T10:58:32.221Z,998.38
2018-11-25T10:59:32.215Z,998.34
2018-11-25T11:00:32.184Z,998.37
2018-11-25T11:01:32.230Z,998.34
2018-11-25T11:02:32.190Z,998.33
2018-11-25T11:03:32.159Z,998.34
2018-11-25T11:04:32.151Z,998.32
2018-11-25T11:05:32.170Z,998.34
2018-11-25T11:06:32.121Z,998.37
2018-11-25T11:07:32.152Z,998.38
2018-11-25T11:08:32.126Z,998.36
2018-11-25T11:09:32.088Z,998.39
2018-11-25T11:10:32.133Z,998.33
2018-11-25T11:11:32.068Z,998.37
2018-11-25T11:12:32.054Z,998.36
2018-11-25T11:13:32.045Z,998.32
2018-11-25T11:14:32.040Z,998.30
2018-11-25T11:15:32.102Z,998.33
2018-11-25T11:16:32.018Z,998.40
2018-11-25T11:17:32.001Z,998.31
2018-11-25T11:18:31.987Z,998.28
2018-11-25T11:19:31.995Z,998.22
2018-11-25T11:20:31.967Z,998.27
2018-11-25T11:21:31.983Z,998.25
2018-11-25T11:22:31.943Z,998.23
2018-11-25T11:23:31.937Z,998.20
2018-11-25T11:24:31.940Z,998.20
2018-11-25T11:25:31.912Z,998.19
2018-11-25T11:26:31.925Z,998.17
2018-11-25T11:27:31.894Z,998.17
2018-11-25T11:28:31.887Z,998.17
2018-11-25T11:29:31.877Z,998.20
2018-11-25T11:30:31.870Z,998.18
2018-11-25T11:31:31.873Z,998.14
2018-11-25T11:32:31.843Z,998.20
2018-11-25T11:33:31.832Z,998.22
2018-11-25T11:34:31.821Z,998.22
2018-11-25T11:35:31.810Z,998.26
2018-11-25T11:36:31.850Z,998.27
2018-11-25T11:37:31.786Z,998.33
2018-11-25T11:38:31.777Z,998.29
2018-11-25T11:39:31.764Z,998.27
2018-11-25T11:40:31.787Z,998.28
2018-11-25T11:41:31.789Z,998.28
2018-11-25T11:42:31.789Z,998.33
2018-11-25T11:43:31.735Z,998.27
2018-11-25T11:44:31.704Z,998.26
2018-11-25T11:45:31.707Z,998.24
2018-11-25T11:46:31.702Z,998.21
2018-11-25T11:47:31.701Z,998.21
2018-11-25T11:48:31.687Z,998.21
2018-11-25T11:49:31.667Z,998.27
2018-11-25T11:50:31.700Z,998.26
2018-11-25T11:51:31.629Z,998.23
2018-11-25T11:52:31.660Z,998.22
2018-11-25T11:53:31.614Z,998.26
2018-11-25T11:54:31.606Z,998.22
2018-11-25T11:55:31.595Z,998.22
2018-11-25T11:56:31.592Z,998.17
2018-11-25T11:57:31.574Z,998.18
2018-11-25T11:58:31.579Z,998.18
2018-11-25T11:59:31.553Z,998.16
2018-11-25T12:00:31.577Z,998.20
2018-11-25T12:01:31.527Z,998.20
2018-11-25T12:02:31.798Z,998.18
2018-11-25T12:03:31.523Z,998.19
2018-11-25T12:04:31.493Z,998.12
2018-11-25T12:05:31.483Z,998.07
2018-11-25T12:06:31.465Z,998.13
2018-11-25T12:07:31.456Z,998.08
2018-11-25T12:08:31.483Z,998.05
2018-11-25T12:09:31.437Z,998.05
2018-11-25T12:10:31.428Z,998.06
2018-11-25T12:11:31.415Z,998.02
2018-11-25T12:12:31.420Z,998.02
2018-11-25T12:13:31.398Z,998.00
2018-11-25T12:14:31.395Z,998.04
2018-11-25T12:15:31.379Z,997.97
2018-11-25T12:16:31.363Z,997.98
2018-11-25T12:17:31.350Z,998.03
2018-11-25T12:18:31.348Z,998.05
2018-11-25T12:19:31.357Z,997.98
2018-11-25T12:20:31.321Z,998.01
2018-11-25T12:21:31.315Z,998.02
2018-11-25T12:22:31.294Z,997.97
2018-11-25T12:23:31.306Z,997.96
2018-11-25T12:24:31.275Z,998.02
2018-11-25T12:25:31.261Z,997.98
2018-11-25T12:26:31.251Z,997.97
2018-11-25T12:27:31.239Z,997.97
2018-11-25T12:28:31.256Z,997.90